sensor_id;sensor_type;location;lat;lon;timestamp;pressure;altitude;pressure_sealevel;temperature;humidity
36726;BME280;44936;52.086;5.150;2023-01-09T00:01:43;99826.25;;;6.78;100.00
36726;BME280;44936;52.086;5.150;2023-01-09T00:04:09;99804.50;;;6.58;100.00
36726;BME280;44936;52.086;5.150;2023-01-09T00:06:35;99852.34;;;6.91;100.00
36726;BME280;44936;52.086;5.150;2023-01-09T00:09:00;99807.09;;;6.60;100.00
36726;BME280;44936;52.086;5.150;2023-01-09T00:11:28;99810.59;;;6.69;100.00
36726;BME280;44936;52.086;5.150;2023-01-09T00:13:54;99778.41;;;6.44;100.00
36726;BME280;44936;52.086;5.150;2023-01-09T00:16:19;99772.28;;;6.30;100.00
36726;BME280;44936;52.086;5.150;2023-01-09T00:18:45;99856.66;;;6.75;100.00
36726;BME280;44936;52.086;5.150;2023-01-09T00:21:11;99829.69;;;6.67;100.00
36726;BME280;44936;52.086;5.150;2023-01-09T00:23:37;99854.91;;;6.78;100.00
36726;BME280;44936;52.086;5.150;2023-01-09T00:26:04;99812.31;;;6.57;100.00
36726;BME280;44936;52.086;5.150;2023-01-09T00:28:30;99820.13;;;6.60;100.00
36726;BME280;44936;52.086;5.150;2023-01-09T00:30:57;99793.16;;;6.36;100.00
36726;BME280;44936;52.086;5.150;2023-01-09T00:33:36;99855.75;;;6.68;100.00
36726;BME280;44936;52.086;5.150;2023-01-09T00:36:02;99845.34;;;6.67;100.00
36726;BME280;44936;52.086;5.150;2023-01-09T00:38:28;99762.72;;;6.21;100.00
36726;BME280;44936;52.086;5.150;2023-01-09T00:40:54;99794.88;;;6.43;100.00
36726;BME280;44936;52.086;5.150;2023-01-09T00:43:21;99813.13;;;6.40;100.00
36726;BME280;44936;52.086;5.150;2023-01-09T00:45:48;99752.28;;;6.17;100.00
36726;BME280;44936;52.086;5.150;2023-01-09T00:48:18;99807.91;;;6.37;100.00
36726;BME280;44936;52.086;5.150;2023-01-09T00:50:54;99841.84;;;6.59;100.00
36726;BME280;44936;52.086;5.150;2023-01-09T00:53:22;99768.75;;;6.16;100.00
36726;BME280;44936;52.086;5.150;2023-01-09T00:55:51;99842.69;;;6.53;100.00
36726;BME280;44936;52.086;5.150;2023-01-09T00:58:17;99816.59;;;6.39;100.00
36726;BME280;44936;52.086;5.150;2023-01-09T01:00:43;99810.50;;;6.34;100.00
36726;BME280;44936;52.086;5.150;2023-01-09T01:03:09;99833.09;;;6.41;100.00
36726;BME280;44936;52.086;5.150;2023-01-09T01:05:34;99842.69;;;6.45;100.00
36726;BME280;44936;52.086;5.150;2023-01-09T01:08:39;99857.41;;;6.39;100.00
36726;BME280;44936;52.086;5.150;2023-01-09T01:11:06;99821.75;;;6.21;100.00
36726;BME280;44936;52.086;5.150;2023-01-09T01:13:35;99846.94;;;6.31;100.00
36726;BME280;44936;52.086;5.150;2023-01-09T01:16:03;99842.59;;;6.33;100.00
36726;BME280;44936;52.086;5.150;2023-01-09T01:18:29;99837.38;;;6.24;100.00
36726;BME280;44936;52.086;5.150;2023-01-09T01:20:54;99835.66;;;6.31;100.00
36726;BME280;44936;52.086;5.150;2023-01-09T01:23:23;99766.88;;;5.89;100.00
36726;BME280;44936;52.086;5.150;2023-01-09T01:25:48;99831.28;;;6.19;100.00
36726;BME280;44936;52.086;5.150;2023-01-09T01:28:14;99831.25;;;6.16;100.00
36726;BME280;44936;52.086;5.150;2023-01-09T01:30:41;99812.97;;;6.07;100.00
36726;BME280;44936;52.086;5.150;2023-01-09T01:33:10;99813.81;;;5.98;100.00
36726;BME280;44936;52.086;5.150;2023-01-09T01:35:36;99790.34;;;5.90;100.00
36726;BME280;44936;52.086;5.150;2023-01-09T01:38:02;99818.13;;;5.94;100.00
36726;BME280;44936;52.086;5.150;2023-01-09T01:40:28;99783.28;;;5.71;100.00
36726;BME280;44936;52.086;5.150;2023-01-09T01:42:54;99803.31;;;5.87;100.00
36726;BME280;44936;52.086;5.150;2023-01-09T01:45:26;99746.75;;;5.50;100.00
36726;BME280;44936;52.086;5.150;2023-01-09T01:53:02;99807.59;;;5.79;100.00
36726;BME280;44936;52.086;5.150;2023-01-09T01:55:43;99798.00;;;5.71;100.00
36726;BME280;44936;52.086;5.150;2023-01-09T01:58:15;99828.47;;;5.88;100.00
36726;BME280;44936;52.086;5.150;2023-01-09T02:00:46;99769.28;;;5.54;100.00
36726;BME280;44936;52.086;5.150;2023-01-09T02:03:18;99836.38;;;5.96;100.00
36726;BME280;44936;52.086;5.150;2023-01-09T02:05:45;99778.94;;;5.73;100.00
36726;BME280;44936;52.086;5.150;2023-01-09T02:08:11;99783.34;;;5.83;100.00
36726;BME280;44936;52.086;5.150;2023-01-09T02:10:38;99741.63;;;5.68;100.00
36726;BME280;44936;52.086;5.150;2023-01-09T02:13:04;99767.81;;;5.95;100.00
36726;BME280;44936;52.086;5.150;2023-01-09T02:16:00;99757.31;;;5.82;100.00
36726;BME280;44936;52.086;5.150;2023-01-09T02:18:40;99820.03;;;6.31;100.00
36726;BME280;44936;52.086;5.150;2023-01-09T02:43:04;99838.88;;;5.84;100.00
36726;BME280;44936;52.086;5.150;2023-01-09T02:45:31;99849.28;;;5.88;100.00
36726;BME280;44936;52.086;5.150;2023-01-09T02:47:56;99842.25;;;5.72;100.00
36726;BME280;44936;52.086;5.150;2023-01-09T02:50:40;99881.47;;;5.93;100.00
36726;BME280;44936;52.086;5.150;2023-01-09T02:53:24;99851.88;;;5.85;100.00
36726;BME280;44936;52.086;5.150;2023-01-09T02:56:46;99859.69;;;5.85;100.00
36726;BME280;44936;52.086;5.150;2023-01-09T02:59:03;99846.50;;;5.59;100.00
36726;BME280;44936;52.086;5.150;2023-01-09T03:07:15;99797.84;;;5.43;100.00
36726;BME280;44936;52.086;5.150;2023-01-09T03:09:46;99781.31;;;5.36;100.00
36726;BME280;44936;52.086;5.150;2023-01-09T03:12:15;99808.25;;;5.46;100.00
36726;BME280;44936;52.086;5.150;2023-01-09T03:14:49;99801.38;;;5.51;100.00
36726;BME280;44936;52.086;5.150;2023-01-09T03:17:23;99777.91;;;5.40;100.00
36726;BME280;44936;52.086;5.150;2023-01-09T03:19:52;99803.97;;;5.54;100.00
36726;BME280;44936;52.086;5.150;2023-01-09T03:22:18;99788.28;;;5.40;100.00
36726;BME280;44936;52.086;5.150;2023-01-09T03:24:44;99797.03;;;5.49;100.00
36726;BME280;44936;52.086;5.150;2023-01-09T03:27:09;99822.28;;;5.68;100.00
36726;BME280;44936;52.086;5.150;2023-01-09T03:29:35;99820.56;;;5.68;100.00
36726;BME280;44936;52.086;5.150;2023-01-09T03:32:04;99796.16;;;5.51;100.00
36726;BME280;44936;52.086;5.150;2023-01-09T03:34:32;99825.72;;;5.62;100.00
36726;BME280;44936;52.086;5.150;2023-01-09T03:36:57;99791.72;;;5.36;100.00
36726;BME280;44936;52.086;5.150;2023-01-09T03:39:23;99784.72;;;5.26;100.00
36726;BME280;44936;52.086;5.150;2023-01-09T03:42:08;99767.31;;;5.19;100.00
36726;BME280;44936;52.086;5.150;2023-01-09T03:44:33;99769.09;;;5.23;100.00
36726;BME280;44936;52.086;5.150;2023-01-09T03:47:02;99781.25;;;5.29;100.00
36726;BME280;44936;52.086;5.150;2023-01-09T03:49:27;99776.84;;;5.14;100.00
36726;BME280;44936;52.086;5.150;2023-01-09T03:51:53;99835.97;;;5.43;100.00
36726;BME280;44936;52.086;5.150;2023-01-09T03:54:18;99787.19;;;5.09;100.00
36726;BME280;44936;52.086;5.150;2023-01-09T03:56:44;99829.03;;;5.42;100.00
36726;BME280;44936;52.086;5.150;2023-01-09T03:59:10;99763.72;;;5.00;100.00
36726;BME280;44936;52.086;5.150;2023-01-09T04:01:35;99803.75;;;5.22;100.00
36726;BME280;44936;52.086;5.150;2023-01-09T04:04:00;99748.91;;;4.92;100.00
36726;BME280;44936;52.086;5.150;2023-01-09T04:06:28;99748.84;;;4.82;100.00
36726;BME280;44936;52.086;5.150;2023-01-09T04:08:54;99838.44;;;5.27;100.00
36726;BME280;44936;52.086;5.150;2023-01-09T04:11:19;99761.84;;;4.84;100.00
36726;BME280;44936;52.086;5.150;2023-01-09T04:13:46;99747.97;;;4.83;100.00
36726;BME280;44936;52.086;5.150;2023-01-09T04:16:12;99771.50;;;4.97;100.00
36726;BME280;44936;52.086;5.150;2023-01-09T04:18:37;99828.06;;;5.29;100.00
36726;BME280;44936;52.086;5.150;2023-01-09T04:21:04;99754.09;;;4.89;100.00
36726;BME280;44936;52.086;5.150;2023-01-09T04:23:30;99750.59;;;4.85;100.00
36726;BME280;44936;52.086;5.150;2023-01-09T04:25:55;99818.50;;;5.25;100.00
36726;BME280;44936;52.086;5.150;2023-01-09T04:28:23;99802.81;;;5.14;100.00
36726;BME280;44936;52.086;5.150;2023-01-09T04:30:49;99828.97;;;5.31;100.00
36726;BME280;44936;52.086;5.150;2023-01-09T04:33:14;99747.13;;;4.84;100.00
36726;BME280;44936;52.086;5.150;2023-01-09T04:35:40;99821.03;;;5.16;100.00
36726;BME280;44936;52.086;5.150;2023-01-09T04:38:05;99798.53;;;5.21;100.00
36726;BME280;44936;52.086;5.150;2023-01-09T04:40:34;99768.94;;;5.03;100.00
36726;BME280;44936;52.086;5.150;2023-01-09T04:42:59;99838.72;;;5.61;100.00
36726;BME280;44936;52.086;5.150;2023-01-09T04:45:27;99829.22;;;5.66;100.00
36726;BME280;44936;52.086;5.150;2023-01-09T04:47:53;99830.94;;;5.65;100.00
36726;BME280;44936;52.086;5.150;2023-01-09T04:50:18;99763.06;;;5.27;100.00
36726;BME280;44936;52.086;5.150;2023-01-09T04:52:44;99766.56;;;5.31;100.00
36726;BME280;44936;52.086;5.150;2023-01-09T04:55:13;99757.84;;;5.27;100.00
36726;BME280;44936;52.086;5.150;2023-01-09T04:57:38;99777.91;;;5.44;100.00
36726;BME280;44936;52.086;5.150;2023-01-09T05:00:08;99836.22;;;5.82;100.00
36726;BME280;44936;52.086;5.150;2023-01-09T05:02:36;99822.41;;;5.88;100.00
36726;BME280;44936;52.086;5.150;2023-01-09T05:05:02;99799.75;;;5.72;100.00
36726;BME280;44936;52.086;5.150;2023-01-09T05:07:28;99810.22;;;5.79;100.00
36726;BME280;44936;52.086;5.150;2023-01-09T05:09:53;99838.09;;;5.94;100.00
36726;BME280;44936;52.086;5.150;2023-01-09T05:12:19;99805.81;;;5.66;100.00
36726;BME280;44936;52.086;5.150;2023-01-09T05:14:44;99782.34;;;5.57;100.00
36726;BME280;44936;52.086;5.150;2023-01-09T05:17:10;99805.88;;;5.78;100.00
36726;BME280;44936;52.086;5.150;2023-01-09T05:19:35;99772.81;;;5.65;100.00
36726;BME280;44936;52.086;5.150;2023-01-09T05:22:00;99780.56;;;5.56;100.00
36726;BME280;44936;52.086;5.150;2023-01-09T05:24:26;99778.94;;;5.68;100.00
36726;BME280;44936;52.086;5.150;2023-01-09T05:26:51;99840.75;;;6.03;100.00
36726;BME280;44936;52.086;5.150;2023-01-09T05:29:17;99811.13;;;5.87;100.00
36726;BME280;44936;52.086;5.150;2023-01-09T05:31:42;99770.28;;;5.74;100.00
36726;BME280;44936;52.086;5.150;2023-01-09T05:34:07;99778.13;;;5.82;100.00
36726;BME280;44936;52.086;5.150;2023-01-09T05:36:34;99847.69;;;6.07;100.00
36726;BME280;44936;52.086;5.150;2023-01-09T05:39:00;99769.38;;;5.66;100.00
36726;BME280;44936;52.086;5.150;2023-01-09T05:41:26;99779.75;;;5.60;100.00
36726;BME280;44936;52.086;5.150;2023-01-09T05:43:52;99792.03;;;5.88;100.00
36726;BME280;44936;52.086;5.150;2023-01-09T05:46:30;99765.97;;;5.78;100.00
36726;BME280;44936;52.086;5.150;2023-01-09T05:48:56;99839.13;;;6.28;100.00
36726;BME280;44936;52.086;5.150;2023-01-09T05:51:22;99771.25;;;5.91;100.00
36726;BME280;44936;52.086;5.150;2023-01-09T05:53:47;99759.06;;;5.86;100.00
36726;BME280;44936;52.086;5.150;2023-01-09T05:56:13;99842.59;;;6.30;100.00
36726;BME280;44936;52.086;5.150;2023-01-09T05:58:41;99780.88;;;6.03;100.00
36726;BME280;44936;52.086;5.150;2023-01-09T06:01:24;99819.19;;;6.39;100.00
36726;BME280;44936;52.086;5.150;2023-01-09T06:03:56;99827.88;;;6.41;100.00
36726;BME280;44936;52.086;5.150;2023-01-09T06:06:21;99770.50;;;6.17;100.00
36726;BME280;44936;52.086;5.150;2023-01-09T06:08:48;99818.38;;;6.49;100.00
36726;BME280;44936;52.086;5.150;2023-01-09T06:11:13;99814.03;;;6.48;100.00
36726;BME280;44936;52.086;5.150;2023-01-09T06:13:39;99782.72;;;6.32;100.00
36726;BME280;44936;52.086;5.150;2023-01-09T06:16:05;99739.19;;;5.97;100.00
36726;BME280;44936;52.086;5.150;2023-01-09T06:18:30;99816.59;;;6.36;100.00
36726;BME280;44936;52.086;5.150;2023-01-09T06:20:56;99760.06;;;6.06;100.00
36726;BME280;44936;52.086;5.150;2023-01-09T06:23:21;99755.69;;;6.01;100.00
36726;BME280;44936;52.086;5.150;2023-01-09T06:25:47;99758.28;;;5.96;100.00
36726;BME280;44936;52.086;5.150;2023-01-09T06:28:12;99757.44;;;6.05;100.00
36726;BME280;44936;52.086;5.150;2023-01-09T06:30:40;99809.63;;;6.35;100.00
36726;BME280;44936;52.086;5.150;2023-01-09T06:33:06;99768.78;;;6.20;100.00
36726;BME280;44936;52.086;5.150;2023-01-09T06:35:31;99781.84;;;6.34;100.00
36726;BME280;44936;52.086;5.150;2023-01-09T06:37:56;99806.22;;;6.51;100.00
36726;BME280;44936;52.086;5.150;2023-01-09T06:40:25;99801.03;;;6.58;100.00
36726;BME280;44936;52.086;5.150;2023-01-09T06:43:00;99772.31;;;6.38;100.00
36726;BME280;44936;52.086;5.150;2023-01-09T06:45:31;99774.91;;;6.30;100.00
36726;BME280;44936;52.086;5.150;2023-01-09T06:47:56;99768.78;;;6.25;100.00
36726;BME280;44936;52.086;5.150;2023-01-09T06:50:22;99774.06;;;6.37;100.00
36726;BME280;44936;52.086;5.150;2023-01-09T06:52:50;99724.50;;;6.10;100.00
36726;BME280;44936;52.086;5.150;2023-01-09T06:55:19;99735.81;;;6.19;100.00
36726;BME280;44936;52.086;5.150;2023-01-09T06:57:44;99761.88;;;6.33;100.00
36726;BME280;44936;52.086;5.150;2023-01-09T07:00:12;99734.97;;;6.28;100.00
36726;BME280;44936;52.086;5.150;2023-01-09T07:02:40;99789.72;;;6.62;100.00
36726;BME280;44936;52.086;5.150;2023-01-09T07:05:09;99727.16;;;6.31;100.00
36726;BME280;44936;52.086;5.150;2023-01-09T07:07:42;99752.31;;;6.32;100.00
36726;BME280;44936;52.086;5.150;2023-01-09T07:10:08;99801.03;;;6.70;100.00
36726;BME280;44936;52.086;5.150;2023-01-09T07:12:34;99728.91;;;6.31;100.00
36726;BME280;44936;52.086;5.150;2023-01-09T07:15:00;99739.31;;;6.29;100.00
36726;BME280;44936;52.086;5.150;2023-01-09T07:17:25;99789.72;;;6.62;100.00
36726;BME280;44936;52.086;5.150;2023-01-09T07:19:54;99723.69;;;6.35;100.00
36726;BME280;44936;52.086;5.150;2023-01-09T07:22:26;99721.94;;;6.31;100.00
36726;BME280;44936;52.086;5.150;2023-01-09T07:24:52;99793.22;;;6.55;100.00
36726;BME280;44936;52.086;5.150;2023-01-09T07:27:17;99723.66;;;6.20;100.00
36726;BME280;44936;52.086;5.150;2023-01-09T07:29:46;99750.59;;;6.34;100.00
36726;BME280;44936;52.086;5.150;2023-01-09T07:32:11;99762.78;;;6.50;100.00
36726;BME280;44936;52.086;5.150;2023-01-09T07:34:37;99758.44;;;6.42;100.00
36726;BME280;44936;52.086;5.150;2023-01-09T07:37:02;99787.13;;;6.60;100.00
36726;BME280;44936;52.086;5.150;2023-01-09T07:39:28;99789.72;;;6.59;100.00
36726;BME280;44936;52.086;5.150;2023-01-09T07:41:53;99817.53;;;6.67;100.00
36726;BME280;44936;52.086;5.150;2023-01-09T07:44:19;99810.63;;;6.77;100.00
36726;BME280;44936;52.086;5.150;2023-01-09T07:46:44;99807.13;;;6.63;100.00
36726;BME280;44936;52.086;5.150;2023-01-09T07:49:09;99789.72;;;6.62;100.00
36726;BME280;44936;52.086;5.150;2023-01-09T07:51:44;99818.44;;;6.77;100.00
36726;BME280;44936;52.086;5.150;2023-01-09T07:54:10;99824.50;;;6.74;100.00
36726;BME280;44936;52.086;5.150;2023-01-09T07:56:37;99759.31;;;6.36;100.00
36726;BME280;44936;52.086;5.150;2023-01-09T07:59:04;99766.22;;;6.36;100.00
36726;BME280;44936;52.086;5.150;2023-01-09T08:01:35;99802.75;;;6.57;100.00
36726;BME280;44936;52.086;5.150;2023-01-09T08:04:01;99810.59;;;6.63;100.00
36726;BME280;44936;52.086;5.150;2023-01-09T08:06:27;99821.88;;;6.58;100.00
36726;BME280;44936;52.086;5.150;2023-01-09T08:08:52;99817.56;;;6.63;100.00
36726;BME280;44936;52.086;5.150;2023-01-09T08:11:17;99808.84;;;6.55;100.00
36726;BME280;44936;52.086;5.150;2023-01-09T08:13:47;99802.72;;;6.37;100.00
36726;BME280;44936;52.086;5.150;2023-01-09T08:16:13;99835.78;;;6.66;100.00
36726;BME280;44936;52.086;5.150;2023-01-09T08:18:42;99795.75;;;6.38;100.00
36726;BME280;44936;52.086;5.150;2023-01-09T08:21:08;99804.44;;;6.37;100.00
36726;BME280;44936;52.086;5.150;2023-01-09T08:23:35;99878.41;;;6.81;100.00
36726;BME280;44936;52.086;5.150;2023-01-09T08:26:11;99828.81;;;6.54;100.00
36726;BME280;44936;52.086;5.150;2023-01-09T08:28:47;99832.28;;;6.58;100.00
36726;BME280;44936;52.086;5.150;2023-01-09T08:31:14;99875.78;;;6.86;100.00
36726;BME280;44936;52.086;5.150;2023-01-09T08:33:39;99880.13;;;6.81;100.00
36726;BME280;44936;52.086;5.150;2023-01-09T08:39:20;99821.00;;;6.57;100.00
36726;BME280;44936;52.086;5.150;2023-01-09T08:41:49;99893.22;;;7.01;100.00
36726;BME280;44936;52.086;5.150;2023-01-09T08:45:00;99894.09;;;7.03;100.00
36726;BME280;44936;52.086;5.150;2023-01-09T08:47:49;99818.38;;;6.62;100.00
36726;BME280;44936;52.086;5.150;2023-01-09T08:50:15;99821.03;;;6.63;100.00
36726;BME280;44936;52.086;5.150;2023-01-09T08:52:46;99839.25;;;6.65;100.00
36726;BME280;44936;52.086;5.150;2023-01-09T08:55:14;99871.44;;;6.84;100.00
36726;BME280;44936;52.086;5.150;2023-01-09T08:57:55;99856.66;;;6.76;100.00
36726;BME280;44936;52.086;5.150;2023-01-09T09:00:42;99839.28;;;6.78;100.00
36726;BME280;44936;52.086;5.150;2023-01-09T09:03:08;99842.75;;;6.76;100.00
36726;BME280;44936;52.086;5.150;2023-01-09T09:05:35;99881.91;;;6.90;100.00
36726;BME280;44936;52.086;5.150;2023-01-09T09:08:01;99910.59;;;7.06;100.00
36726;BME280;44936;52.086;5.150;2023-01-09T09:10:28;99868.88;;;6.90;100.00
36726;BME280;44936;52.086;5.150;2023-01-09T09:12:55;99880.13;;;6.87;100.00
36726;BME280;44936;52.086;5.150;2023-01-09T09:15:26;99880.13;;;6.87;100.00
36726;BME280;44936;52.086;5.150;2023-01-09T09:18:04;99900.13;;;6.94;100.00
36726;BME280;44936;52.086;5.150;2023-01-09T09:20:32;99976.72;;;7.27;100.00
36726;BME280;44936;52.086;5.150;2023-01-09T09:22:58;99928.78;;;6.88;100.00
36726;BME280;44936;52.086;5.150;2023-01-09T09:25:31;100011.47;;;7.23;100.00
36726;BME280;44936;52.086;5.150;2023-01-09T09:27:57;100030.66;;;7.34;100.00
36726;BME280;44936;52.086;5.150;2023-01-09T09:30:25;100043.72;;;7.34;100.00
36726;BME280;44936;52.086;5.150;2023-01-09T09:32:56;99982.72;;;6.98;100.00
36726;BME280;44936;52.086;5.150;2023-01-09T09:35:24;99978.38;;;7.06;100.00
36726;BME280;44936;52.086;5.150;2023-01-09T09:37:58;99978.38;;;7.06;100.00
36726;BME280;44936;52.086;5.150;2023-01-09T09:41:01;99994.09;;;7.19;100.00
36726;BME280;44936;52.086;5.150;2023-01-09T09:43:51;100035.06;;;7.53;100.00
36726;BME280;44936;52.086;5.150;2023-01-09T09:46:50;99980.19;;;7.32;100.00
36726;BME280;44936;52.086;5.150;2023-01-09T09:49:27;100056.00;;;7.81;100.00
36726;BME280;44936;52.086;5.150;2023-01-09T09:54:45;100068.16;;;7.80;100.00
36726;BME280;44936;52.086;5.150;2023-01-09T09:57:21;100029.81;;;7.59;100.00
36726;BME280;44936;52.086;5.150;2023-01-09T09:59:49;100110.81;;;7.78;100.00
36726;BME280;44936;52.086;5.150;2023-01-09T10:05:04;100116.03;;;7.81;100.00
36726;BME280;44936;52.086;5.150;2023-01-09T10:07:41;100114.28;;;7.78;100.00
36726;BME280;44936;52.086;5.150;2023-01-09T10:10:40;100177.03;;;8.07;100.00
36726;BME280;44936;52.086;5.150;2023-01-09T15:50:27;100682.22;;;6.90;100.00
36726;BME280;44936;52.086;5.150;2023-01-09T15:52:54;100711.06;;;7.00;100.00
36726;BME280;44936;52.086;5.150;2023-01-09T15:55:30;100716.25;;;6.99;100.00
36726;BME280;44936;52.086;5.150;2023-01-09T15:57:59;100729.31;;;7.00;100.00
36726;BME280;44936;52.086;5.150;2023-01-09T16:02:54;100687.91;;;6.66;100.00
36726;BME280;44936;52.086;5.150;2023-01-09T16:05:59;100660.66;;;6.45;100.00
36726;BME280;44936;52.086;5.150;2023-01-09T16:08:36;100699.19;;;6.65;100.00
36726;BME280;44936;52.086;5.150;2023-01-09T16:11:06;100746.53;;;6.89;100.00
36726;BME280;44936;52.086;5.150;2023-01-09T16:13:39;100725.50;;;6.80;100.00
36726;BME280;44936;52.086;5.150;2023-01-09T16:16:07;100743.22;;;6.99;100.00
36726;BME280;44936;52.086;5.150;2023-01-09T16:18:49;100702.16;;;6.88;100.00
36726;BME280;44936;52.086;5.150;2023-01-09T16:21:44;100732.19;;;7.16;100.00
36726;BME280;44936;52.086;5.150;2023-01-09T16:24:24;100657.66;;;6.74;100.00
36726;BME280;44936;52.086;5.150;2023-01-09T16:26:51;100739.19;;;7.21;100.00
36726;BME280;44936;52.086;5.150;2023-01-09T16:29:56;100680.22;;;6.73;100.00
36726;BME280;44936;52.086;5.150;2023-01-09T16:32:30;100701.13;;;6.76;100.00
36726;BME280;44936;52.086;5.150;2023-01-09T16:35:21;100745.81;;;6.99;100.00
36726;BME280;44936;52.086;5.150;2023-01-09T16:37:50;100722.97;;;6.85;100.00
36726;BME280;44936;52.086;5.150;2023-01-09T16:42:45;100790.44;;;7.18;100.00
36726;BME280;44936;52.086;5.150;2023-01-09T16:47:56;100795.84;;;7.28;100.00
36726;BME280;44936;52.086;5.150;2023-01-09T16:50:26;100756.19;;;6.98;100.00
36726;BME280;44936;52.086;5.150;2023-01-09T16:52:52;100770.06;;;6.94;100.00
36726;BME280;44936;52.086;5.150;2023-01-09T16:55:23;100828.69;;;7.16;100.00
36726;BME280;44936;52.086;5.150;2023-01-09T18:25:53;100941.38;;;6.15;100.00
36726;BME280;44936;52.086;5.150;2023-01-09T18:28:18;100998.19;;;6.33;100.00
36726;BME280;44936;52.086;5.150;2023-01-09T18:30:45;100931.97;;;5.85;100.00
36726;BME280;44936;52.086;5.150;2023-01-09T18:33:13;101010.28;;;6.29;100.00
36726;BME280;44936;52.086;5.150;2023-01-09T18:35:41;100946.97;;;5.94;100.00
36726;BME280;44936;52.086;5.150;2023-01-09T18:38:16;100955.91;;;6.05;100.00
36726;BME280;44936;52.086;5.150;2023-01-09T18:40:42;100923.50;;;5.92;100.00
36726;BME280;44936;52.086;5.150;2023-01-09T18:43:08;100974.75;;;6.33;100.00
36726;BME280;44936;52.086;5.150;2023-01-09T18:45:36;101006.25;;;6.43;100.00
36726;BME280;44936;52.086;5.150;2023-01-09T18:48:03;100947.16;;;6.02;100.00
36726;BME280;44936;52.086;5.150;2023-01-09T18:50:28;100997.06;;;6.20;100.00
36726;BME280;44936;52.086;5.150;2023-01-09T18:52:54;100966.16;;;5.99;100.00
36726;BME280;44936;52.086;5.150;2023-01-09T18:55:19;101013.63;;;6.23;100.00
36726;BME280;44936;52.086;5.150;2023-01-09T18:57:46;101024.19;;;6.30;100.00
36726;BME280;44936;52.086;5.150;2023-01-09T19:00:29;101010.78;;;6.13;100.00
36726;BME280;44936;52.086;5.150;2023-01-09T19:02:55;101092.22;;;6.43;100.00
36726;BME280;44936;52.086;5.150;2023-01-09T19:05:20;101101.09;;;6.50;100.00
36726;BME280;44936;52.086;5.150;2023-01-09T19:07:46;101065.84;;;6.28;100.00
36726;BME280;44936;52.086;5.150;2023-01-09T19:10:12;101044.72;;;6.17;100.00
36726;BME280;44936;52.086;5.150;2023-01-09T19:12:38;101060.25;;;6.13;100.00
36726;BME280;44936;52.086;5.150;2023-01-09T19:15:05;101056.00;;;6.18;100.00
36726;BME280;44936;52.086;5.150;2023-01-09T19:17:46;101100.66;;;6.32;100.00
36726;BME280;44936;52.086;5.150;2023-01-09T19:20:15;101137.38;;;6.42;100.00
36726;BME280;44936;52.086;5.150;2023-01-09T19:22:43;101115.41;;;6.31;100.00
36726;BME280;44936;52.086;5.150;2023-01-09T19:25:08;101161.81;;;6.46;100.00
36726;BME280;44936;52.086;5.150;2023-01-09T19:27:37;101072.66;;;5.90;100.00
36726;BME280;44936;52.086;5.150;2023-01-09T19:30:06;101101.47;;;5.94;100.00
36726;BME280;44936;52.086;5.150;2023-01-09T19:32:32;101167.56;;;6.34;100.00
36726;BME280;44936;52.086;5.150;2023-01-09T19:34:59;101101.34;;;5.91;100.00
36726;BME280;44936;52.086;5.150;2023-01-09T19:37:24;101197.94;;;6.34;100.00
36726;BME280;44936;52.086;5.150;2023-01-09T19:39:52;101130.72;;;5.87;100.00
36726;BME280;44936;52.086;5.150;2023-01-09T19:42:17;101160.06;;;6.12;100.00
36726;BME280;44936;52.086;5.150;2023-01-09T19:44:43;101139.88;;;6.03;100.00
36726;BME280;44936;52.086;5.150;2023-01-09T19:47:18;101227.81;;;6.46;100.00
36726;BME280;44936;52.086;5.150;2023-01-09T19:49:43;101180.22;;;6.19;100.00
36726;BME280;44936;52.086;5.150;2023-01-09T19:52:09;101226.94;;;6.46;100.00
36726;BME280;44936;52.086;5.150;2023-01-09T19:54:38;101187.16;;;6.18;100.00
36726;BME280;44936;52.086;5.150;2023-01-09T19:57:04;101187.94;;;6.16;100.00
36726;BME280;44936;52.086;5.150;2023-01-09T19:59:30;101186.16;;;6.15;100.00
36726;BME280;44936;52.086;5.150;2023-01-09T20:01:55;101255.75;;;6.52;100.00
36726;BME280;44936;52.086;5.150;2023-01-09T20:04:21;101224.03;;;6.35;100.00
36726;BME280;44936;52.086;5.150;2023-01-09T20:06:48;101264.84;;;6.35;100.00
36726;BME280;44936;52.086;5.150;2023-01-09T20:09:20;101257.84;;;6.32;100.00
36726;BME280;44936;52.086;5.150;2023-01-09T20:11:49;101245.47;;;6.25;100.00
36726;BME280;44936;52.086;5.150;2023-01-09T20:14:16;101227.88;;;6.16;100.00
36726;BME280;44936;52.086;5.150;2023-01-09T20:16:43;101193.53;;;5.98;100.00
36726;BME280;44936;52.086;5.150;2023-01-09T20:19:10;101213.56;;;6.01;100.00
36726;BME280;44936;52.086;5.150;2023-01-09T20:21:36;101198.69;;;5.96;100.00
36726;BME280;44936;52.086;5.150;2023-01-09T20:24:04;101229.47;;;6.10;100.00
36726;BME280;44936;52.086;5.150;2023-01-09T20:26:35;101281.78;;;6.50;100.00
36726;BME280;44936;52.086;5.150;2023-01-09T20:29:01;101253.69;;;6.39;100.00
36726;BME280;44936;52.086;5.150;2023-01-09T20:31:31;101225.63;;;6.29;100.00
36726;BME280;44936;52.086;5.150;2023-01-09T20:33:57;101268.97;;;6.60;100.00
36726;BME280;44936;52.086;5.150;2023-01-09T20:36:24;101263.56;;;6.52;100.00
36726;BME280;44936;52.086;5.150;2023-01-09T20:38:55;101231.34;;;6.48;100.00
36726;BME280;44936;52.086;5.150;2023-01-09T20:41:23;101302.03;;;6.95;100.00
36726;BME280;44936;52.086;5.150;2023-01-09T20:44:01;101235.53;;;6.43;100.00
36726;BME280;44936;52.086;5.150;2023-01-09T20:46:33;101251.28;;;6.46;100.00
36726;BME280;44936;52.086;5.150;2023-01-09T20:49:03;101256.19;;;6.36;100.00
36726;BME280;44936;52.086;5.150;2023-01-09T20:51:31;101329.16;;;6.69;100.00
36726;BME280;44936;52.086;5.150;2023-01-09T20:53:57;101271.91;;;6.39;100.00
36726;BME280;44936;52.086;5.150;2023-01-09T20:56:24;101308.19;;;6.63;100.00
36726;BME280;44936;52.086;5.150;2023-01-09T20:58:51;101344.16;;;6.77;100.00
36726;BME280;44936;52.086;5.150;2023-01-09T21:01:16;101323.00;;;6.65;100.00
36726;BME280;44936;52.086;5.150;2023-01-09T21:03:42;101324.81;;;6.68;100.00